createdAt,value
2023-01-10T00:03:44.310Z,100110
2023-01-10T00:09:38.983Z,100122
2023-01-10T00:15:32.457Z,100139
2023-01-10T00:21:54.142Z,100156
2023-01-10T00:27:54.247Z,100171
2023-01-10T00:33:48.147Z,100179
2023-01-10T00:39:41.993Z,100208
2023-01-10T00:46:03.742Z,100219
2023-01-10T00:52:13.878Z,100223
2023-01-10T01:04:36.616Z,100250
2023-01-10T01:10:33.183Z,100262
2023-01-10T01:16:33.239Z,100263
2023-01-10T01:22:28.220Z,100284
2023-01-10T01:28:56.898Z,100289
2023-01-10T01:35:31.713Z,100301
2023-01-10T01:41:49.825Z,100317
2023-01-10T01:48:24.691Z,100328
2023-01-10T01:54:27.748Z,100329
2023-01-10T02:00:46.293Z,100346
2023-01-10T02:06:57.907Z,100355
2023-01-10T02:13:04.086Z,100363
2023-01-10T02:19:05.614Z,100357
2023-01-10T02:25:32.108Z,100364
2023-01-10T02:31:54.491Z,100372
2023-01-10T02:38:06.124Z,100382
2023-01-10T02:44:26.021Z,100386
2023-01-10T02:50:33.388Z,100392
2023-01-10T02:56:41.147Z,100396
2023-01-10T03:02:45.710Z,100403
2023-01-10T03:08:42.537Z,100407
2023-01-10T03:14:35.587Z,100421
2023-01-10T03:20:30.271Z,100426
2023-01-10T03:26:49.554Z,100445
2023-01-10T03:33:05.399Z,100450
2023-01-10T03:39:06.907Z,100466
2023-01-10T03:45:17.280Z,100456
2023-01-10T03:57:42.919Z,100470
2023-01-10T04:03:50.658Z,100491
2023-01-10T04:09:51.114Z,100508
2023-01-10T04:15:55.440Z,100513
2023-01-10T04:21:53.526Z,100522
2023-01-10T04:27:52.691Z,100534
2023-01-10T04:33:48.271Z,100537
2023-01-10T04:40:05.309Z,100535
2023-01-10T04:52:10.671Z,100551
2023-01-10T04:58:14.302Z,100563
2023-01-10T05:04:07.917Z,100569
2023-01-10T05:10:04.844Z,100572
2023-01-10T05:15:53.529Z,100579
2023-01-10T05:21:44.614Z,100587
2023-01-10T05:27:35.350Z,100600
2023-01-10T05:33:26.254Z,100601
2023-01-10T05:39:16.810Z,100599
2023-01-10T05:45:07.466Z,100596
2023-01-10T05:50:59.715Z,100600
2023-01-10T05:56:50.618Z,100630
2023-01-10T06:02:41.621Z,100632
2023-01-10T06:10:50.970Z,100609
2023-01-10T06:16:40.104Z,100630
2023-01-10T06:22:30.630Z,100655
2023-01-10T06:28:22.298Z,100670
2023-01-10T06:34:13.551Z,100686
2023-01-10T06:40:05.546Z,100686
2023-01-10T06:45:56.179Z,100707
2023-01-10T06:51:48.182Z,100726
2023-01-10T06:57:39.149Z,100723
2023-01-10T07:03:30.521Z,100722
2023-01-10T07:09:23.067Z,100730
2023-01-10T07:15:14.533Z,100740
2023-01-10T07:21:05.378Z,100732
2023-01-10T07:28:06.253Z,100744
2023-01-10T07:33:56.536Z,100736
2023-01-10T07:39:47.458Z,100750
2023-01-10T07:45:37.795Z,100764
2023-01-10T07:51:27.551Z,100773
2023-01-10T07:57:18.369Z,100777
2023-01-10T08:03:10.437Z,100789
2023-01-10T08:09:02.595Z,100789
2023-01-10T08:14:53.587Z,100791
2023-01-10T08:20:45.556Z,100802
2023-01-10T08:26:36.470Z,100804
2023-01-10T08:32:29.233Z,100815
2023-01-10T08:38:20.419Z,100817
2023-01-10T08:44:12.594Z,100824
2023-01-10T08:50:05.219Z,100823
2023-01-10T08:55:56.908Z,100843
2023-01-10T09:01:47.982Z,100852
2023-01-10T09:07:39.511Z,100848
2023-01-10T09:13:30.248Z,100855
2023-01-10T09:19:20.738Z,100851
2023-01-10T09:25:12.144Z,100850
2023-01-10T09:31:03.661Z,100849
2023-01-10T09:36:54.922Z,100852
2023-01-10T09:42:45.649Z,100856
2023-01-10T09:48:38.566Z,100852
2023-01-10T09:54:29.525Z,100850
2023-01-10T10:00:20.877Z,100860
2023-01-10T10:06:15.383Z,100861
2023-01-10T10:12:06.131Z,100861
2023-01-10T10:17:57.837Z,100857
2023-01-10T10:23:49.134Z,100858
2023-01-10T10:29:41.748Z,100854
2023-01-10T10:35:32.464Z,100850
2023-01-10T10:41:24.120Z,100853
2023-01-10T10:47:15.299Z,100851
2023-01-10T10:53:08.389Z,100851
2023-01-10T10:59:00.708Z,100861
2023-01-10T11:04:51.378Z,100864
2023-01-10T11:10:42.304Z,100859
2023-01-10T11:16:31.702Z,100848
2023-01-10T11:22:21.322Z,100848
2023-01-10T11:28:14.285Z,100845
2023-01-10T11:34:05.130Z,100835
2023-01-10T11:39:56.047Z,100827
2023-01-10T11:45:46.300Z,100829
2023-01-10T11:51:36.728Z,100822
2023-01-10T11:59:48.786Z,100813
2023-01-10T12:05:41.429Z,100807
2023-01-10T12:11:32.930Z,100790
2023-01-10T12:17:24.478Z,100787
2023-01-10T12:23:16.159Z,100785
2023-01-10T12:29:08.402Z,100784
2023-01-10T12:35:01.577Z,100781
2023-01-10T12:40:53.907Z,100777
2023-01-10T12:47:14.309Z,100779
2023-01-10T12:53:03.502Z,100774
2023-01-10T12:58:54.129Z,100779
2023-01-10T13:04:43.834Z,100767
2023-01-10T13:10:35.155Z,100762
2023-01-10T13:16:26.446Z,100748
2023-01-10T13:22:17.755Z,100744
2023-01-10T13:28:07.972Z,100735
2023-01-10T13:34:03.222Z,100727
2023-01-10T13:39:54.258Z,100714
2023-01-10T13:45:46.895Z,100717
2023-01-10T13:51:38.727Z,100715
2023-01-10T13:57:31.678Z,100711
2023-01-10T14:04:29.648Z,100700
2023-01-10T14:10:20.515Z,100698
2023-01-10T14:16:11.321Z,100690
2023-01-10T14:22:02.593Z,100673
2023-01-10T14:29:07.353Z,100675
2023-01-10T14:34:58.581Z,100671
2023-01-10T14:40:49.527Z,100654
2023-01-10T14:46:40.035Z,100654
2023-01-10T14:52:30.291Z,100639
2023-01-10T14:58:19.526Z,100627
2023-01-10T15:04:10.259Z,100617
2023-01-10T15:10:01.164Z,100600
2023-01-10T15:16:00.264Z,100597
2023-01-10T15:22:14.596Z,100591
2023-01-10T15:28:27.191Z,100589
2023-01-10T15:34:24.268Z,100579
2023-01-10T15:40:22.399Z,100573
2023-01-10T15:46:56.657Z,100564
2023-01-10T16:12:11.652Z,100527
2023-01-10T16:24:55.109Z,100503
2023-01-10T16:37:29.211Z,100482
2023-01-10T16:43:56.943Z,100472
2023-01-10T16:49:54.450Z,100457
2023-01-10T16:55:58.963Z,100437
2023-01-10T17:02:12.579Z,100426
2023-01-10T17:14:42.291Z,100433
2023-01-10T17:20:54.847Z,100428
2023-01-10T17:33:36.867Z,100422
2023-01-10T17:39:54.218Z,100423
2023-01-10T17:46:08.678Z,100411
2023-01-10T17:58:21.124Z,100419
2023-01-10T18:04:24.141Z,100410
2023-01-10T18:10:16.931Z,100401
2023-01-10T18:16:40.214Z,100396
2023-01-10T18:22:47.595Z,100386
2023-01-10T18:29:08.527Z,100396
2023-01-10T18:42:06.267Z,100380
2023-01-10T19:01:35.112Z,100355
2023-01-10T19:14:55.952Z,100349
2023-01-10T19:21:05.672Z,100345
2023-01-10T19:27:05.827Z,100335
2023-01-10T19:58:33.336Z,100304
2023-01-10T20:10:54.479Z,100293
2023-01-10T20:42:45.807Z,100292
2023-01-10T20:48:44.672Z,100281
2023-01-10T20:55:04.823Z,100279
2023-01-10T21:01:32.866Z,100269
2023-01-10T21:07:59.122Z,100250
2023-01-10T21:14:03.173Z,100248
2023-01-10T21:19:53.102Z,100255
2023-01-10T21:25:44.498Z,100245
2023-01-10T21:31:36.282Z,100240
2023-01-10T21:37:28.988Z,100225
2023-01-10T21:43:23.363Z,100220
2023-01-10T21:49:15.113Z,100225
2023-01-10T21:55:05.517Z,100219
2023-01-10T22:00:55.305Z,100214
2023-01-10T22:06:46.171Z,100219
2023-01-10T22:12:36.613Z,100216
2023-01-10T22:18:27.279Z,100211
2023-01-10T22:24:15.748Z,100209
2023-01-10T22:30:06.153Z,100195
2023-01-10T22:35:56.954Z,100185
2023-01-10T22:41:45.819Z,100181
2023-01-10T22:47:37.235Z,100179
2023-01-10T22:53:29.150Z,100157
2023-01-10T22:59:19.699Z,100141
2023-01-10T23:05:11.107Z,100132
2023-01-10T23:11:01.657Z,100126
2023-01-10T23:16:52.468Z,100125
2023-01-10T23:22:42.713Z,100127
2023-01-10T23:28:32.855Z,100116
2023-01-10T23:34:23.150Z,100097
2023-01-10T23:40:13.694Z,100085
2023-01-10T23:46:04.728Z,100085
2023-01-10T23:51:55.945Z,100081
2023-01-10T23:57:46.766Z,100093
